sensor_id;sensor_type;location;lat;lon;timestamp;temperature;humidity
65040;HTU21D;51606;45.000;38.612;2024-01-06T00:06:32;4.61;86.91
65040;HTU21D;51606;45.000;38.612;2024-01-06T00:08:55;4.51;86.86
65040;HTU21D;51606;45.000;38.612;2024-01-06T00:11:22;4.45;86.92
65040;HTU21D;51606;45.000;38.612;2024-01-06T00:13:49;4.38;86.90
65040;HTU21D;51606;45.000;38.612;2024-01-06T00:16:19;4.35;86.88
65040;HTU21D;51606;45.000;38.612;2024-01-06T00:18:47;4.29;86.86
65040;HTU21D;51606;45.000;38.612;2024-01-06T00:21:13;4.23;86.85
65040;HTU21D;51606;45.000;38.612;2024-01-06T00:23:40;4.22;86.77
65040;HTU21D;51606;45.000;38.612;2024-01-06T00:26:07;4.17;86.70
65040;HTU21D;51606;45.000;38.612;2024-01-06T00:28:34;4.13;86.72
65040;HTU21D;51606;45.000;38.612;2024-01-06T00:31:01;4.09;86.66
65040;HTU21D;51606;45.000;38.612;2024-01-06T00:33:27;4.05;86.64
65040;HTU21D;51606;45.000;38.612;2024-01-06T00:35:54;4.01;86.64
65040;HTU21D;51606;45.000;38.612;2024-01-06T00:38:21;3.98;86.61
65040;HTU21D;51606;45.000;38.612;2024-01-06T00:40:48;3.93;86.58
65040;HTU21D;51606;45.000;38.612;2024-01-06T00:43:14;3.89;86.60
65040;HTU21D;51606;45.000;38.612;2024-01-06T00:45:40;3.85;86.59
65040;HTU21D;51606;45.000;38.612;2024-01-06T00:48:07;3.82;86.61
65040;HTU21D;51606;45.000;38.612;2024-01-06T00:50:33;3.78;86.58
65040;HTU21D;51606;45.000;38.612;2024-01-06T00:53:00;3.75;86.55
65040;HTU21D;51606;45.000;38.612;2024-01-06T00:55:26;3.72;86.58
65040;HTU21D;51606;45.000;38.612;2024-01-06T00:57:52;3.70;86.55
65040;HTU21D;51606;45.000;38.612;2024-01-06T01:00:19;3.68;86.51
65040;HTU21D;51606;45.000;38.612;2024-01-06T01:02:45;3.64;86.50
65040;HTU21D;51606;45.000;38.612;2024-01-06T01:05:12;3.61;86.51
65040;HTU21D;51606;45.000;38.612;2024-01-06T01:07:38;3.59;86.45
65040;HTU21D;51606;45.000;38.612;2024-01-06T01:10:05;3.56;86.48
65040;HTU21D;51606;45.000;38.612;2024-01-06T01:12:31;3.50;86.46
65040;HTU21D;51606;45.000;38.612;2024-01-06T01:14:58;3.47;86.47
65040;HTU21D;51606;45.000;38.612;2024-01-06T01:17:24;3.42;86.48
65040;HTU21D;51606;45.000;38.612;2024-01-06T01:19:50;3.36;86.51
65040;HTU21D;51606;45.000;38.612;2024-01-06T01:22:17;3.31;86.58
65040;HTU21D;51606;45.000;38.612;2024-01-06T01:24:43;3.26;86.62
65040;HTU21D;51606;45.000;38.612;2024-01-06T01:27:09;3.21;86.67
65040;HTU21D;51606;45.000;38.612;2024-01-06T01:29:36;3.18;86.65
65040;HTU21D;51606;45.000;38.612;2024-01-06T01:32:02;3.13;86.69
65040;HTU21D;51606;45.000;38.612;2024-01-06T01:34:29;3.11;86.68
65040;HTU21D;51606;45.000;38.612;2024-01-06T01:36:55;3.06;86.66
65040;HTU21D;51606;45.000;38.612;2024-01-06T01:39:22;3.01;86.67
65040;HTU21D;51606;45.000;38.612;2024-01-06T01:41:48;2.97;86.71
65040;HTU21D;51606;45.000;38.612;2024-01-06T01:44:15;2.94;86.72
65040;HTU21D;51606;45.000;38.612;2024-01-06T01:46:42;2.95;86.70
65040;HTU21D;51606;45.000;38.612;2024-01-06T01:49:08;2.91;86.62
65040;HTU21D;51606;45.000;38.612;2024-01-06T01:51:35;2.91;86.56
65040;HTU21D;51606;45.000;38.612;2024-01-06T01:54:02;2.90;86.51
65040;HTU21D;51606;45.000;38.612;2024-01-06T01:56:31;2.88;86.47
65040;HTU21D;51606;45.000;38.612;2024-01-06T01:59:08;2.82;86.49
65040;HTU21D;51606;45.000;38.612;2024-01-06T02:01:35;2.76;86.53
65040;HTU21D;51606;45.000;38.612;2024-01-06T02:04:03;2.72;86.56
65040;HTU21D;51606;45.000;38.612;2024-01-06T02:06:29;2.70;86.59
65040;HTU21D;51606;45.000;38.612;2024-01-06T02:08:56;2.70;86.59
65040;HTU21D;51606;45.000;38.612;2024-01-06T02:11:22;2.69;86.53
65040;HTU21D;51606;45.000;38.612;2024-01-06T02:13:49;2.67;86.48
65040;HTU21D;51606;45.000;38.612;2024-01-06T02:16:15;2.64;86.49
65040;HTU21D;51606;45.000;38.612;2024-01-06T02:18:42;2.61;86.51
65040;HTU21D;51606;45.000;38.612;2024-01-06T02:21:09;2.59;86.53
65040;HTU21D;51606;45.000;38.612;2024-01-06T02:23:36;2.57;86.49
65040;HTU21D;51606;45.000;38.612;2024-01-06T02:26:03;2.55;86.48
65040;HTU21D;51606;45.000;38.612;2024-01-06T02:28:30;2.50;86.52
65040;HTU21D;51606;45.000;38.612;2024-01-06T02:30:56;2.46;86.56
65040;HTU21D;51606;45.000;38.612;2024-01-06T02:33:22;2.44;86.56
65040;HTU21D;51606;45.000;38.612;2024-01-06T02:35:50;2.39;86.58
65040;HTU21D;51606;45.000;38.612;2024-01-06T02:38:17;2.37;86.64
65040;HTU21D;51606;45.000;38.612;2024-01-06T02:40:43;2.35;86.69
65040;HTU21D;51606;45.000;38.612;2024-01-06T02:43:09;2.37;86.61
65040;HTU21D;51606;45.000;38.612;2024-01-06T02:45:36;2.40;86.45
65040;HTU21D;51606;45.000;38.612;2024-01-06T02:48:02;2.39;86.34
65040;HTU21D;51606;45.000;38.612;2024-01-06T02:50:29;2.35;86.38
65040;HTU21D;51606;45.000;38.612;2024-01-06T02:52:55;2.35;86.49
65040;HTU21D;51606;45.000;38.612;2024-01-06T02:55:22;2.36;86.40
65040;HTU21D;51606;45.000;38.612;2024-01-06T02:57:48;2.39;86.35
65040;HTU21D;51606;45.000;38.612;2024-01-06T03:00:15;2.39;86.22
65040;HTU21D;51606;45.000;38.612;2024-01-06T03:02:41;2.34;86.22
65040;HTU21D;51606;45.000;38.612;2024-01-06T03:05:09;2.26;86.23
65040;HTU21D;51606;45.000;38.612;2024-01-06T03:07:36;2.16;86.36
65040;HTU21D;51606;45.000;38.612;2024-01-06T03:10:03;2.10;86.48
65040;HTU21D;51606;45.000;38.612;2024-01-06T03:12:29;2.01;86.54
65040;HTU21D;51606;45.000;38.612;2024-01-06T03:14:56;1.93;86.63
65040;HTU21D;51606;45.000;38.612;2024-01-06T03:17:22;1.87;86.71
65040;HTU21D;51606;45.000;38.612;2024-01-06T03:19:48;1.78;86.77
65040;HTU21D;51606;45.000;38.612;2024-01-06T03:22:15;1.70;86.90
65040;HTU21D;51606;45.000;38.612;2024-01-06T03:24:41;1.63;86.93
65040;HTU21D;51606;45.000;38.612;2024-01-06T03:27:07;1.57;87.06
65040;HTU21D;51606;45.000;38.612;2024-01-06T03:29:35;1.53;87.05
65040;HTU21D;51606;45.000;38.612;2024-01-06T03:32:01;1.49;87.03
65040;HTU21D;51606;45.000;38.612;2024-01-06T03:34:27;1.46;87.01
65040;HTU21D;51606;45.000;38.612;2024-01-06T03:48:30;1.29;86.99
65040;HTU21D;51606;45.000;38.612;2024-01-06T03:50:59;1.36;86.95
65040;HTU21D;51606;45.000;38.612;2024-01-06T03:53:25;1.47;86.76
65040;HTU21D;51606;45.000;38.612;2024-01-06T03:55:52;1.52;86.50
65040;HTU21D;51606;45.000;38.612;2024-01-06T03:58:18;1.49;86.39
65040;HTU21D;51606;45.000;38.612;2024-01-06T04:00:44;1.47;86.41
65040;HTU21D;51606;45.000;38.612;2024-01-06T04:03:11;1.42;86.47
65040;HTU21D;51606;45.000;38.612;2024-01-06T04:05:37;1.42;86.48
65040;HTU21D;51606;45.000;38.612;2024-01-06T04:08:04;1.39;86.41
65040;HTU21D;51606;45.000;38.612;2024-01-06T04:10:30;1.34;86.42
65040;HTU21D;51606;45.000;38.612;2024-01-06T04:12:56;1.24;86.53
65040;HTU21D;51606;45.000;38.612;2024-01-06T04:15:23;1.16;86.70
65040;HTU21D;51606;45.000;38.612;2024-01-06T04:17:50;1.13;86.80
65040;HTU21D;51606;45.000;38.612;2024-01-06T04:20:16;1.11;86.81
65040;HTU21D;51606;45.000;38.612;2024-01-06T04:22:43;1.09;86.93
65040;HTU21D;51606;45.000;38.612;2024-01-06T04:25:09;1.12;86.91
65040;HTU21D;51606;45.000;38.612;2024-01-06T04:27:35;1.14;86.71
65040;HTU21D;51606;45.000;38.612;2024-01-06T04:30:02;1.09;86.68
65040;HTU21D;51606;45.000;38.612;2024-01-06T04:32:28;1.02;86.80
65040;HTU21D;51606;45.000;38.612;2024-01-06T04:34:54;0.96;86.88
65040;HTU21D;51606;45.000;38.612;2024-01-06T04:37:23;0.91;86.95
65040;HTU21D;51606;45.000;38.612;2024-01-06T04:39:49;0.88;87.06
65040;HTU21D;51606;45.000;38.612;2024-01-06T04:42:16;0.84;87.08
65040;HTU21D;51606;45.000;38.612;2024-01-06T04:44:42;0.84;87.05
65040;HTU21D;51606;45.000;38.612;2024-01-06T04:47:08;0.83;87.08
65040;HTU21D;51606;45.000;38.612;2024-01-06T04:49:35;0.84;87.06
65040;HTU21D;51606;45.000;38.612;2024-01-06T04:52:01;0.86;87.02
65040;HTU21D;51606;45.000;38.612;2024-01-06T04:54:27;0.86;86.92
65040;HTU21D;51606;45.000;38.612;2024-01-06T04:56:53;0.86;86.93
65040;HTU21D;51606;45.000;38.612;2024-01-06T04:59:20;0.89;86.89
65040;HTU21D;51606;45.000;38.612;2024-01-06T05:01:47;0.91;86.77
65040;HTU21D;51606;45.000;38.612;2024-01-06T05:04:13;0.91;86.78
65040;HTU21D;51606;45.000;38.612;2024-01-06T05:06:39;0.92;86.79
65040;HTU21D;51606;45.000;38.612;2024-01-06T05:09:06;0.98;86.74
65040;HTU21D;51606;45.000;38.612;2024-01-06T05:11:32;1.05;86.68
65040;HTU21D;51606;45.000;38.612;2024-01-06T05:13:58;1.12;86.57
65040;HTU21D;51606;45.000;38.612;2024-01-06T05:16:25;1.25;86.51
65040;HTU21D;51606;45.000;38.612;2024-01-06T05:18:52;1.43;86.19
65040;HTU21D;51606;45.000;38.612;2024-01-06T05:29:17;2.98;84.26
65040;HTU21D;51606;45.000;38.612;2024-01-06T05:31:43;3.52;83.64
65040;HTU21D;51606;45.000;38.612;2024-01-06T05:34:12;4.02;83.31
65040;HTU21D;51606;45.000;38.612;2024-01-06T05:36:38;4.49;83.26
65040;HTU21D;51606;45.000;38.612;2024-01-06T05:39:05;4.94;83.35
65040;HTU21D;51606;45.000;38.612;2024-01-06T05:41:40;5.38;83.64
65040;HTU21D;51606;45.000;38.612;2024-01-06T05:44:06;5.82;83.97
65040;HTU21D;51606;45.000;38.612;2024-01-06T05:46:34;6.25;84.43
65040;HTU21D;51606;45.000;38.612;2024-01-06T05:49:00;6.68;84.93
65040;HTU21D;51606;45.000;38.612;2024-01-06T05:51:27;7.11;85.44
65040;HTU21D;51606;45.000;38.612;2024-01-06T05:53:53;7.54;85.90
65040;HTU21D;51606;45.000;38.612;2024-01-06T05:56:24;8.01;86.30
65040;HTU21D;51606;45.000;38.612;2024-01-06T05:58:52;8.50;86.48
65040;HTU21D;51606;45.000;38.612;2024-01-06T06:01:19;9.00;86.41
65040;HTU21D;51606;45.000;38.612;2024-01-06T06:03:47;9.44;86.20
65040;HTU21D;51606;45.000;38.612;2024-01-06T06:06:14;9.56;85.71
65040;HTU21D;51606;45.000;38.612;2024-01-06T06:08:42;9.34;85.58
65040;HTU21D;51606;45.000;38.612;2024-01-06T06:11:08;9.11;86.35
65040;HTU21D;51606;45.000;38.612;2024-01-06T06:13:39;9.56;86.48
65040;HTU21D;51606;45.000;38.612;2024-01-06T06:16:10;10.30;85.11
65040;HTU21D;51606;45.000;38.612;2024-01-06T06:18:40;11.08;84.03
65040;HTU21D;51606;45.000;38.612;2024-01-06T06:21:07;11.70;83.08
65040;HTU21D;51606;45.000;38.612;2024-01-06T06:23:36;12.03;82.40
65040;HTU21D;51606;45.000;38.612;2024-01-06T06:26:06;11.89;82.59
65040;HTU21D;51606;45.000;38.612;2024-01-06T06:28:32;11.37;83.35
65040;HTU21D;51606;45.000;38.612;2024-01-06T06:31:03;11.07;85.54
65040;HTU21D;51606;45.000;38.612;2024-01-06T06:33:29;11.76;84.88
65040;HTU21D;51606;45.000;38.612;2024-01-06T06:35:56;12.60;83.17
65040;HTU21D;51606;45.000;38.612;2024-01-06T06:38:22;13.34;81.84
65040;HTU21D;51606;45.000;38.612;2024-01-06T06:40:49;13.74;81.08
65040;HTU21D;51606;45.000;38.612;2024-01-06T06:43:15;13.71;81.30
65040;HTU21D;51606;45.000;38.612;2024-01-06T06:45:42;13.58;81.55
65040;HTU21D;51606;45.000;38.612;2024-01-06T06:48:08;13.55;82.45
65040;HTU21D;51606;45.000;38.612;2024-01-06T06:50:34;14.08;81.53
65040;HTU21D;51606;45.000;38.612;2024-01-06T06:53:00;13.73;81.23
65040;HTU21D;51606;45.000;38.612;2024-01-06T06:55:27;12.93;82.17
65040;HTU21D;51606;45.000;38.612;2024-01-06T06:57:53;12.15;83.35
65040;HTU21D;51606;45.000;38.612;2024-01-06T07:00:20;11.40;84.59
65040;HTU21D;51606;45.000;38.612;2024-01-06T07:02:46;10.78;85.52
65040;HTU21D;51606;45.000;38.612;2024-01-06T07:05:13;10.27;86.22
65040;HTU21D;51606;45.000;38.612;2024-01-06T07:07:40;9.92;86.62
65040;HTU21D;51606;45.000;38.612;2024-01-06T07:10:07;9.80;86.83
65040;HTU21D;51606;45.000;38.612;2024-01-06T07:12:33;9.79;86.40
65040;HTU21D;51606;45.000;38.612;2024-01-06T07:15:00;9.74;86.02
65040;HTU21D;51606;45.000;38.612;2024-01-06T07:17:26;9.74;85.74
65040;HTU21D;51606;45.000;38.612;2024-01-06T07:19:52;9.75;85.44
65040;HTU21D;51606;45.000;38.612;2024-01-06T07:22:20;9.79;85.03
65040;HTU21D;51606;45.000;38.612;2024-01-06T07:24:46;9.89;84.80
65040;HTU21D;51606;45.000;38.612;2024-01-06T07:27:13;10.06;84.42
65040;HTU21D;51606;45.000;38.612;2024-01-06T07:29:39;10.74;84.29
65040;HTU21D;51606;45.000;38.612;2024-01-06T07:32:06;12.11;82.78
65040;HTU21D;51606;45.000;38.612;2024-01-06T07:34:32;13.52;81.07
65040;HTU21D;51606;45.000;38.612;2024-01-06T07:36:59;14.58;79.72
65040;HTU21D;51606;45.000;38.612;2024-01-06T07:39:25;15.06;79.21
65040;HTU21D;51606;45.000;38.612;2024-01-06T07:41:52;15.32;79.53
65040;HTU21D;51606;45.000;38.612;2024-01-06T07:44:19;15.53;80.10
65040;HTU21D;51606;45.000;38.612;2024-01-06T07:46:51;16.28;79.53
65040;HTU21D;51606;45.000;38.612;2024-01-06T07:49:17;17.14;78.51
65040;HTU21D;51606;45.000;38.612;2024-01-06T07:51:44;17.79;77.73
65040;HTU21D;51606;45.000;38.612;2024-01-06T07:54:10;18.36;77.36
65040;HTU21D;51606;45.000;38.612;2024-01-06T07:56:38;18.84;76.97
65040;HTU21D;51606;45.000;38.612;2024-01-06T07:59:05;19.22;76.66
65040;HTU21D;51606;45.000;38.612;2024-01-06T08:01:31;19.55;76.48
65040;HTU21D;51606;45.000;38.612;2024-01-06T08:03:59;19.92;76.19
65040;HTU21D;51606;45.000;38.612;2024-01-06T08:06:26;20.29;75.74
65040;HTU21D;51606;45.000;38.612;2024-01-06T08:08:52;20.58;75.49
65040;HTU21D;51606;45.000;38.612;2024-01-06T08:11:19;20.78;74.99
65040;HTU21D;51606;45.000;38.612;2024-01-06T08:13:45;20.75;75.10
65040;HTU21D;51606;45.000;38.612;2024-01-06T08:16:12;20.78;75.21
65040;HTU21D;51606;45.000;38.612;2024-01-06T08:18:38;21.02;74.96
65040;HTU21D;51606;45.000;38.612;2024-01-06T08:21:05;21.09;74.66
65040;HTU21D;51606;45.000;38.612;2024-01-06T08:23:31;21.10;74.60
65040;HTU21D;51606;45.000;38.612;2024-01-06T08:25:57;21.08;74.73
65040;HTU21D;51606;45.000;38.612;2024-01-06T08:28:23;21.21;74.52
65040;HTU21D;51606;45.000;38.612;2024-01-06T08:30:50;21.30;74.30
65040;HTU21D;51606;45.000;38.612;2024-01-06T08:33:16;21.42;74.09
65040;HTU21D;51606;45.000;38.612;2024-01-06T08:35:44;21.52;73.75
65040;HTU21D;51606;45.000;38.612;2024-01-06T08:38:10;21.65;73.53
65040;HTU21D;51606;45.000;38.612;2024-01-06T08:40:36;21.76;73.25
65040;HTU21D;51606;45.000;38.612;2024-01-06T08:43:03;21.78;72.99
65040;HTU21D;51606;45.000;38.612;2024-01-06T08:45:29;21.75;72.94
65040;HTU21D;51606;45.000;38.612;2024-01-06T08:47:56;21.65;73.06
65040;HTU21D;51606;45.000;38.612;2024-01-06T08:50:22;21.58;72.99
65040;HTU21D;51606;45.000;38.612;2024-01-06T08:52:49;21.33;73.28
65040;HTU21D;51606;45.000;38.612;2024-01-06T08:55:15;21.19;73.54
65040;HTU21D;51606;45.000;38.612;2024-01-06T08:57:42;21.17;73.41
65040;HTU21D;51606;45.000;38.612;2024-01-06T09:11:45;19.62;74.69
65040;HTU21D;51606;45.000;38.612;2024-01-06T09:14:12;19.32;74.57
65040;HTU21D;51606;45.000;38.612;2024-01-06T09:16:38;18.84;74.81
65040;HTU21D;51606;45.000;38.612;2024-01-06T09:19:05;18.66;74.90
65040;HTU21D;51606;45.000;38.612;2024-01-06T09:21:31;18.55;74.70
65040;HTU21D;51606;45.000;38.612;2024-01-06T09:23:57;18.47;74.56
65040;HTU21D;51606;45.000;38.612;2024-01-06T09:26:24;18.42;74.48
65040;HTU21D;51606;45.000;38.612;2024-01-06T09:28:51;18.40;74.39
65040;HTU21D;51606;45.000;38.612;2024-01-06T09:31:17;18.43;74.38
65040;HTU21D;51606;45.000;38.612;2024-01-06T09:33:43;18.56;74.20
65040;HTU21D;51606;45.000;38.612;2024-01-06T09:36:10;18.64;73.96
65040;HTU21D;51606;45.000;38.612;2024-01-06T09:38:38;18.71;73.78
65040;HTU21D;51606;45.000;38.612;2024-01-06T09:41:04;18.54;73.84
65040;HTU21D;51606;45.000;38.612;2024-01-06T09:43:30;18.48;74.03
65040;HTU21D;51606;45.000;38.612;2024-01-06T09:46:05;18.34;73.77
65040;HTU21D;51606;45.000;38.612;2024-01-06T09:48:37;18.14;73.98
65040;HTU21D;51606;45.000;38.612;2024-01-06T09:51:05;17.99;74.24
65040;HTU21D;51606;45.000;38.612;2024-01-06T09:53:35;17.81;74.25
65040;HTU21D;51606;45.000;38.612;2024-01-06T09:56:05;17.69;74.40
65040;HTU21D;51606;45.000;38.612;2024-01-06T09:58:34;17.62;74.18
65040;HTU21D;51606;45.000;38.612;2024-01-06T10:01:02;17.46;74.14
65040;HTU21D;51606;45.000;38.612;2024-01-06T10:03:29;17.31;73.98
65040;HTU21D;51606;45.000;38.612;2024-01-06T10:05:55;16.91;73.93
65040;HTU21D;51606;45.000;38.612;2024-01-06T10:08:26;16.33;73.88
65040;HTU21D;51606;45.000;38.612;2024-01-06T10:10:53;15.85;73.82
65040;HTU21D;51606;45.000;38.612;2024-01-06T10:13:19;15.46;73.74
65040;HTU21D;51606;45.000;38.612;2024-01-06T10:15:45;15.19;73.37
65040;HTU21D;51606;45.000;38.612;2024-01-06T10:18:13;15.01;72.98
65040;HTU21D;51606;45.000;38.612;2024-01-06T10:20:39;14.85;72.58
65040;HTU21D;51606;45.000;38.612;2024-01-06T10:23:06;14.62;72.30
65040;HTU21D;51606;45.000;38.612;2024-01-06T10:25:32;14.40;72.08
65040;HTU21D;51606;45.000;38.612;2024-01-06T10:28:01;14.10;71.90
65040;HTU21D;51606;45.000;38.612;2024-01-06T10:30:30;13.78;72.09
65040;HTU21D;51606;45.000;38.612;2024-01-06T10:32:57;13.67;72.02
65040;HTU21D;51606;45.000;38.612;2024-01-06T10:35:25;13.63;71.73
65040;HTU21D;51606;45.000;38.612;2024-01-06T10:37:52;13.53;71.64
65040;HTU21D;51606;45.000;38.612;2024-01-06T10:40:18;13.47;71.41
65040;HTU21D;51606;45.000;38.612;2024-01-06T10:42:45;13.31;71.26
65040;HTU21D;51606;45.000;38.612;2024-01-06T10:45:13;13.06;70.97
65040;HTU21D;51606;45.000;38.612;2024-01-06T10:47:43;12.88;71.19
65040;HTU21D;51606;45.000;38.612;2024-01-06T10:50:10;12.87;71.19
65040;HTU21D;51606;45.000;38.612;2024-01-06T10:52:38;12.87;71.00
65040;HTU21D;51606;45.000;38.612;2024-01-06T10:55:05;12.91;70.84
65040;HTU21D;51606;45.000;38.612;2024-01-06T10:57:32;12.92;70.76
65040;HTU21D;51606;45.000;38.612;2024-01-06T10:59:59;12.90;70.52
65040;HTU21D;51606;45.000;38.612;2024-01-06T11:02:26;12.78;70.53
65040;HTU21D;51606;45.000;38.612;2024-01-06T11:04:53;12.63;70.53
65040;HTU21D;51606;45.000;38.612;2024-01-06T11:07:21;12.50;70.64
65040;HTU21D;51606;45.000;38.612;2024-01-06T11:12:23;12.37;70.58
65040;HTU21D;51606;45.000;38.612;2024-01-06T11:14:49;12.17;70.86
65040;HTU21D;51606;45.000;38.612;2024-01-06T11:17:50;12.08;70.93
65040;HTU21D;51606;45.000;38.612;2024-01-06T11:20:20;11.99;70.86
65040;HTU21D;51606;45.000;38.612;2024-01-06T11:22:50;11.96;70.90
65040;HTU21D;51606;45.000;38.612;2024-01-06T11:25:18;11.93;70.84
65040;HTU21D;51606;45.000;38.612;2024-01-06T11:27:48;11.92;70.68
65040;HTU21D;51606;45.000;38.612;2024-01-06T11:30:23;11.91;70.66
65040;HTU21D;51606;45.000;38.612;2024-01-06T11:32:55;11.88;70.74
65040;HTU21D;51606;45.000;38.612;2024-01-06T11:35:28;11.88;70.70
65040;HTU21D;51606;45.000;38.612;2024-01-06T11:37:58;11.87;70.76
65040;HTU21D;51606;45.000;38.612;2024-01-06T11:40:36;11.86;70.76
65040;HTU21D;51606;45.000;38.612;2024-01-06T11:43:11;11.83;70.68
65040;HTU21D;51606;45.000;38.612;2024-01-06T11:45:42;11.78;70.82
65040;HTU21D;51606;45.000;38.612;2024-01-06T11:48:10;11.77;70.88
65040;HTU21D;51606;45.000;38.612;2024-01-06T11:50:39;11.72;70.92
65040;HTU21D;51606;45.000;38.612;2024-01-06T11:53:07;11.67;71.00
65040;HTU21D;51606;45.000;38.612;2024-01-06T11:55:35;11.63;71.00
65040;HTU21D;51606;45.000;38.612;2024-01-06T11:58:03;11.58;71.01
65040;HTU21D;51606;45.000;38.612;2024-01-06T12:00:30;11.52;71.13
65040;HTU21D;51606;45.000;38.612;2024-01-06T12:03:00;11.47;71.06
65040;HTU21D;51606;45.000;38.612;2024-01-06T12:05:27;11.44;71.00
65040;HTU21D;51606;45.000;38.612;2024-01-06T12:07:55;11.41;71.04
65040;HTU21D;51606;45.000;38.612;2024-01-06T12:10:23;11.38;71.04
65040;HTU21D;51606;45.000;38.612;2024-01-06T12:13:03;11.34;71.11
65040;HTU21D;51606;45.000;38.612;2024-01-06T12:15:31;11.31;71.17
65040;HTU21D;51606;45.000;38.612;2024-01-06T12:17:58;11.31;71.17
65040;HTU21D;51606;45.000;38.612;2024-01-06T12:20:26;11.37;71.16
65040;HTU21D;51606;45.000;38.612;2024-01-06T12:22:55;11.43;71.10
65040;HTU21D;51606;45.000;38.612;2024-01-06T12:25:23;11.52;70.98
65040;HTU21D;51606;45.000;38.612;2024-01-06T12:27:49;11.57;70.96
65040;HTU21D;51606;45.000;38.612;2024-01-06T12:30:18;11.67;70.91
65040;HTU21D;51606;45.000;38.612;2024-01-06T12:32:48;11.75;70.81
65040;HTU21D;51606;45.000;38.612;2024-01-06T12:35:16;11.79;70.81
65040;HTU21D;51606;45.000;38.612;2024-01-06T12:37:43;11.84;70.79
65040;HTU21D;51606;45.000;38.612;2024-01-06T12:51:46;11.78;71.11
65040;HTU21D;51606;45.000;38.612;2024-01-06T12:54:13;11.71;71.25
65040;HTU21D;51606;45.000;38.612;2024-01-06T12:56:40;11.67;71.37
65040;HTU21D;51606;45.000;38.612;2024-01-06T12:59:06;11.62;71.45
65040;HTU21D;51606;45.000;38.612;2024-01-06T13:01:33;11.55;71.58
65040;HTU21D;51606;45.000;38.612;2024-01-06T13:04:00;11.48;71.68
65040;HTU21D;51606;45.000;38.612;2024-01-06T13:06:27;11.42;71.77
65040;HTU21D;51606;45.000;38.612;2024-01-06T13:08:53;11.37;71.82
65040;HTU21D;51606;45.000;38.612;2024-01-06T13:11:20;11.32;71.90
65040;HTU21D;51606;45.000;38.612;2024-01-06T13:13:47;11.28;71.96
65040;HTU21D;51606;45.000;38.612;2024-01-06T13:16:13;11.22;71.95
65040;HTU21D;51606;45.000;38.612;2024-01-06T13:18:39;11.13;72.06
65040;HTU21D;51606;45.000;38.612;2024-01-06T13:21:06;11.05;72.16
65040;HTU21D;51606;45.000;38.612;2024-01-06T13:23:32;10.97;72.27
65040;HTU21D;51606;45.000;38.612;2024-01-06T13:25:58;10.90;72.34
65040;HTU21D;51606;45.000;38.612;2024-01-06T13:28:24;10.84;72.41
65040;HTU21D;51606;45.000;38.612;2024-01-06T13:30:51;10.77;72.51
65040;HTU21D;51606;45.000;38.612;2024-01-06T13:33:18;10.70;72.57
65040;HTU21D;51606;45.000;38.612;2024-01-06T13:35:44;10.59;72.59
65040;HTU21D;51606;45.000;38.612;2024-01-06T13:38:10;10.48;72.60
65040;HTU21D;51606;45.000;38.612;2024-01-06T13:40:37;10.31;72.83
65040;HTU21D;51606;45.000;38.612;2024-01-06T13:43:03;10.14;73.09
65040;HTU21D;51606;45.000;38.612;2024-01-06T13:45:32;9.96;73.32
65040;HTU21D;51606;45.000;38.612;2024-01-06T13:47:59;9.81;73.52
65040;HTU21D;51606;45.000;38.612;2024-01-06T13:50:25;9.66;73.73
65040;HTU21D;51606;45.000;38.612;2024-01-06T13:52:52;9.55;73.86
65040;HTU21D;51606;45.000;38.612;2024-01-06T13:55:18;9.45;73.93
65040;HTU21D;51606;45.000;38.612;2024-01-06T13:57:45;9.32;74.06
65040;HTU21D;51606;45.000;38.612;2024-01-06T14:00:11;9.17;74.14
65040;HTU21D;51606;45.000;38.612;2024-01-06T14:02:41;9.03;74.34
65040;HTU21D;51606;45.000;38.612;2024-01-06T14:05:08;8.90;74.46
65040;HTU21D;51606;45.000;38.612;2024-01-06T14:07:37;8.78;74.57
65040;HTU21D;51606;45.000;38.612;2024-01-06T14:10:12;8.66;74.67
65040;HTU21D;51606;45.000;38.612;2024-01-06T14:12:41;8.53;74.76
65040;HTU21D;51606;45.000;38.612;2024-01-06T14:15:08;8.41;74.92
65040;HTU21D;51606;45.000;38.612;2024-01-06T14:17:36;8.33;74.99
65040;HTU21D;51606;45.000;38.612;2024-01-06T14:20:04;8.22;75.00
65040;HTU21D;51606;45.000;38.612;2024-01-06T14:22:30;8.13;75.06
65040;HTU21D;51606;45.000;38.612;2024-01-06T14:24:57;8.08;75.12
65040;HTU21D;51606;45.000;38.612;2024-01-06T14:27:23;8.05;75.08
65040;HTU21D;51606;45.000;38.612;2024-01-06T14:29:52;8.05;74.99
65040;HTU21D;51606;45.000;38.612;2024-01-06T14:32:23;8.04;74.92
65040;HTU21D;51606;45.000;38.612;2024-01-06T14:34:50;7.99;74.91
65040;HTU21D;51606;45.000;38.612;2024-01-06T14:37:17;7.93;74.91
65040;HTU21D;51606;45.000;38.612;2024-01-06T14:39:43;7.88;74.96
65040;HTU21D;51606;45.000;38.612;2024-01-06T14:42:10;7.86;74.97
65040;HTU21D;51606;45.000;38.612;2024-01-06T14:44:36;7.84;74.96
65040;HTU21D;51606;45.000;38.612;2024-01-06T14:47:02;7.82;74.94
65040;HTU21D;51606;45.000;38.612;2024-01-06T14:49:29;7.75;75.03
65040;HTU21D;51606;45.000;38.612;2024-01-06T14:51:55;7.71;75.09
65040;HTU21D;51606;45.000;38.612;2024-01-06T14:54:22;7.72;75.06
65040;HTU21D;51606;45.000;38.612;2024-01-06T14:56:48;7.69;75.02
65040;HTU21D;51606;45.000;38.612;2024-01-06T14:59:16;7.63;75.16
65040;HTU21D;51606;45.000;38.612;2024-01-06T15:01:43;7.60;75.18
65040;HTU21D;51606;45.000;38.612;2024-01-06T15:04:10;7.59;75.17
65040;HTU21D;51606;45.000;38.612;2024-01-06T15:06:36;7.58;75.19
65040;HTU21D;51606;45.000;38.612;2024-01-06T15:09:03;7.49;75.16
65040;HTU21D;51606;45.000;38.612;2024-01-06T15:11:29;7.45;75.40
65040;HTU21D;51606;45.000;38.612;2024-01-06T15:13:55;7.44;75.34
65040;HTU21D;51606;45.000;38.612;2024-01-06T15:16:22;7.42;75.32
65040;HTU21D;51606;45.000;38.612;2024-01-06T15:18:48;7.35;75.34
65040;HTU21D;51606;45.000;38.612;2024-01-06T15:21:15;7.29;75.46
65040;HTU21D;51606;45.000;38.612;2024-01-06T15:23:47;7.25;75.57
65040;HTU21D;51606;45.000;38.612;2024-01-06T15:26:21;7.26;75.57
65040;HTU21D;51606;45.000;38.612;2024-01-06T15:28:47;7.25;75.45
65040;HTU21D;51606;45.000;38.612;2024-01-06T15:31:14;7.22;75.44
65040;HTU21D;51606;45.000;38.612;2024-01-06T15:33:40;7.15;75.54
65040;HTU21D;51606;45.000;38.612;2024-01-06T15:36:08;7.13;75.58
65040;HTU21D;51606;45.000;38.612;2024-01-06T15:38:35;7.11;75.68
65040;HTU21D;51606;45.000;38.612;2024-01-06T15:41:01;7.12;75.67
65040;HTU21D;51606;45.000;38.612;2024-01-06T15:43:27;7.08;75.65
65040;HTU21D;51606;45.000;38.612;2024-01-06T15:45:54;7.01;75.72
65040;HTU21D;51606;45.000;38.612;2024-01-06T15:48:21;6.99;75.84
65040;HTU21D;51606;45.000;38.612;2024-01-06T15:50:48;6.95;75.87
65040;HTU21D;51606;45.000;38.612;2024-01-06T15:53:14;6.88;75.98
65040;HTU21D;51606;45.000;38.612;2024-01-06T15:55:43;6.85;76.02
65040;HTU21D;51606;45.000;38.612;2024-01-06T15:58:09;6.83;76.10
65040;HTU21D;51606;45.000;38.612;2024-01-06T16:00:36;6.84;76.15